sensor_id;sensor_type;location;lat;lon;timestamp;P1;durP1;ratioP1;P2;durP2;ratioP2
3573;SDS011;1801;51.050;6.246;2023-12-14T00:01:37;73.60;;;24.27;;
3573;SDS011;1801;51.050;6.246;2023-12-14T00:04:04;65.35;;;23.95;;
3573;SDS011;1801;51.050;6.246;2023-12-14T00:06:30;72.10;;;25.00;;
3573;SDS011;1801;51.050;6.246;2023-12-14T00:08:55;69.47;;;25.00;;
3573;SDS011;1801;51.050;6.246;2023-12-14T00:11:20;74.33;;;24.03;;
3573;SDS011;1801;51.050;6.246;2023-12-14T00:13:45;89.43;;;25.73;;
3573;SDS011;1801;51.050;6.246;2023-12-14T00:16:10;70.97;;;24.60;;
3573;SDS011;1801;51.050;6.246;2023-12-14T00:18:36;78.63;;;26.37;;
3573;SDS011;1801;51.050;6.246;2023-12-14T00:21:01;78.00;;;25.77;;
3573;SDS011;1801;51.050;6.246;2023-12-14T00:23:27;97.80;;;29.27;;
3573;SDS011;1801;51.050;6.246;2023-12-14T00:25:52;80.23;;;27.47;;
3573;SDS011;1801;51.050;6.246;2023-12-14T00:28:17;70.90;;;25.40;;
3573;SDS011;1801;51.050;6.246;2023-12-14T00:30:42;84.83;;;25.00;;
3573;SDS011;1801;51.050;6.246;2023-12-14T00:33:08;80.40;;;27.90;;
3573;SDS011;1801;51.050;6.246;2023-12-14T00:35:33;95.40;;;28.10;;
3573;SDS011;1801;51.050;6.246;2023-12-14T00:37:58;70.50;;;26.53;;
3573;SDS011;1801;51.050;6.246;2023-12-14T00:40:23;96.57;;;29.53;;
3573;SDS011;1801;51.050;6.246;2023-12-14T00:42:50;76.45;;;26.73;;
3573;SDS011;1801;51.050;6.246;2023-12-14T00:45:15;89.00;;;29.13;;
3573;SDS011;1801;51.050;6.246;2023-12-14T00:47:40;93.37;;;29.60;;
3573;SDS011;1801;51.050;6.246;2023-12-14T00:50:06;99.63;;;27.83;;
3573;SDS011;1801;51.050;6.246;2023-12-14T00:52:31;101.17;;;26.10;;
3573;SDS011;1801;51.050;6.246;2023-12-14T00:54:56;91.17;;;27.00;;
3573;SDS011;1801;51.050;6.246;2023-12-14T00:57:21;71.03;;;25.30;;
3573;SDS011;1801;51.050;6.246;2023-12-14T00:59:47;86.60;;;27.47;;
3573;SDS011;1801;51.050;6.246;2023-12-14T01:02:12;78.63;;;26.40;;
3573;SDS011;1801;51.050;6.246;2023-12-14T01:04:37;72.07;;;22.00;;
3573;SDS011;1801;51.050;6.246;2023-12-14T01:07:03;86.97;;;26.73;;
3573;SDS011;1801;51.050;6.246;2023-12-14T01:09:28;74.77;;;23.90;;
3573;SDS011;1801;51.050;6.246;2023-12-14T01:11:53;71.33;;;22.70;;
3573;SDS011;1801;51.050;6.246;2023-12-14T01:14:18;75.13;;;23.40;;
3573;SDS011;1801;51.050;6.246;2023-12-14T01:16:43;61.63;;;23.30;;
3573;SDS011;1801;51.050;6.246;2023-12-14T01:19:09;68.80;;;24.10;;
3573;SDS011;1801;51.050;6.246;2023-12-14T01:21:34;62.93;;;19.90;;
3573;SDS011;1801;51.050;6.246;2023-12-14T01:23:59;59.43;;;18.60;;
3573;SDS011;1801;51.050;6.246;2023-12-14T01:26:25;52.50;;;18.27;;
3573;SDS011;1801;51.050;6.246;2023-12-14T01:28:51;53.50;;;16.13;;
3573;SDS011;1801;51.050;6.246;2023-12-14T01:31:16;52.90;;;16.43;;
3573;SDS011;1801;51.050;6.246;2023-12-14T01:33:41;34.30;;;12.03;;
3573;SDS011;1801;51.050;6.246;2023-12-14T01:36:06;44.77;;;15.43;;
3573;SDS011;1801;51.050;6.246;2023-12-14T01:38:32;45.83;;;13.87;;
3573;SDS011;1801;51.050;6.246;2023-12-14T01:40:57;41.80;;;15.13;;
3573;SDS011;1801;51.050;6.246;2023-12-14T01:43:24;36.50;;;14.07;;
3573;SDS011;1801;51.050;6.246;2023-12-14T01:45:49;37.30;;;13.83;;
3573;SDS011;1801;51.050;6.246;2023-12-14T01:48:15;37.87;;;13.33;;
3573;SDS011;1801;51.050;6.246;2023-12-14T01:50:40;46.37;;;15.30;;
3573;SDS011;1801;51.050;6.246;2023-12-14T01:53:05;39.63;;;13.63;;
3573;SDS011;1801;51.050;6.246;2023-12-14T01:55:30;37.33;;;13.93;;
3573;SDS011;1801;51.050;6.246;2023-12-14T01:57:55;33.60;;;12.53;;
3573;SDS011;1801;51.050;6.246;2023-12-14T02:02:52;33.57;;;12.43;;
3573;SDS011;1801;51.050;6.246;2023-12-14T02:05:17;40.93;;;14.03;;
3573;SDS011;1801;51.050;6.246;2023-12-14T02:07:42;37.73;;;15.50;;
3573;SDS011;1801;51.050;6.246;2023-12-14T02:10:07;41.13;;;14.33;;
3573;SDS011;1801;51.050;6.246;2023-12-14T02:12:33;39.37;;;14.60;;
3573;SDS011;1801;51.050;6.246;2023-12-14T02:14:59;43.03;;;14.17;;
3573;SDS011;1801;51.050;6.246;2023-12-14T02:17:24;39.70;;;13.23;;
3573;SDS011;1801;51.050;6.246;2023-12-14T02:19:49;36.13;;;14.63;;
3573;SDS011;1801;51.050;6.246;2023-12-14T02:22:16;35.77;;;12.53;;
3573;SDS011;1801;51.050;6.246;2023-12-14T02:24:41;30.52;;;11.27;;
3573;SDS011;1801;51.050;6.246;2023-12-14T02:27:06;36.27;;;12.80;;
3573;SDS011;1801;51.050;6.246;2023-12-14T02:29:31;32.13;;;12.47;;
3573;SDS011;1801;51.050;6.246;2023-12-14T02:31:57;40.20;;;12.60;;
3573;SDS011;1801;51.050;6.246;2023-12-14T02:34:22;40.90;;;14.77;;
3573;SDS011;1801;51.050;6.246;2023-12-14T02:36:49;45.28;;;13.35;;
3573;SDS011;1801;51.050;6.246;2023-12-14T02:39:15;39.13;;;14.30;;
3573;SDS011;1801;51.050;6.246;2023-12-14T02:41:40;41.70;;;13.47;;
3573;SDS011;1801;51.050;6.246;2023-12-14T02:44:05;50.30;;;15.70;;
3573;SDS011;1801;51.050;6.246;2023-12-14T02:46:30;44.50;;;15.53;;
3573;SDS011;1801;51.050;6.246;2023-12-14T02:48:55;44.40;;;15.57;;
3573;SDS011;1801;51.050;6.246;2023-12-14T02:51:21;51.43;;;17.87;;
3573;SDS011;1801;51.050;6.246;2023-12-14T02:53:46;42.20;;;14.43;;
3573;SDS011;1801;51.050;6.246;2023-12-14T02:56:12;44.57;;;16.13;;
3573;SDS011;1801;51.050;6.246;2023-12-14T02:58:37;49.07;;;16.30;;
3573;SDS011;1801;51.050;6.246;2023-12-14T03:01:02;48.33;;;16.33;;
3573;SDS011;1801;51.050;6.246;2023-12-14T03:03:27;48.90;;;16.23;;
3573;SDS011;1801;51.050;6.246;2023-12-14T03:05:54;50.67;;;16.57;;
3573;SDS011;1801;51.050;6.246;2023-12-14T03:08:19;58.50;;;16.70;;
3573;SDS011;1801;51.050;6.246;2023-12-14T03:10:44;61.37;;;17.10;;
3573;SDS011;1801;51.050;6.246;2023-12-14T03:13:09;59.70;;;17.20;;
3573;SDS011;1801;51.050;6.246;2023-12-14T03:15:35;59.47;;;18.53;;
3573;SDS011;1801;51.050;6.246;2023-12-14T03:18:00;52.57;;;15.83;;
3573;SDS011;1801;51.050;6.246;2023-12-14T03:20:25;49.87;;;15.17;;
3573;SDS011;1801;51.050;6.246;2023-12-14T03:22:50;56.53;;;17.07;;
3573;SDS011;1801;51.050;6.246;2023-12-14T03:25:15;53.30;;;17.27;;
3573;SDS011;1801;51.050;6.246;2023-12-14T03:27:41;53.63;;;14.70;;
3573;SDS011;1801;51.050;6.246;2023-12-14T03:30:06;51.60;;;17.67;;
3573;SDS011;1801;51.050;6.246;2023-12-14T03:32:34;50.67;;;15.10;;
3573;SDS011;1801;51.050;6.246;2023-12-14T03:34:59;51.03;;;17.80;;
3573;SDS011;1801;51.050;6.246;2023-12-14T03:37:25;46.47;;;15.50;;
3573;SDS011;1801;51.050;6.246;2023-12-14T03:39:50;62.83;;;17.93;;
3573;SDS011;1801;51.050;6.246;2023-12-14T03:42:16;46.45;;;14.38;;
3573;SDS011;1801;51.050;6.246;2023-12-14T03:44:41;49.33;;;15.00;;
3573;SDS011;1801;51.050;6.246;2023-12-14T03:47:06;51.47;;;18.03;;
3573;SDS011;1801;51.050;6.246;2023-12-14T03:49:36;44.77;;;16.63;;
3573;SDS011;1801;51.050;6.246;2023-12-14T03:52:01;59.28;;;18.63;;
3573;SDS011;1801;51.050;6.246;2023-12-14T03:54:27;47.57;;;15.47;;
3573;SDS011;1801;51.050;6.246;2023-12-14T03:56:52;50.70;;;17.70;;
3573;SDS011;1801;51.050;6.246;2023-12-14T03:59:17;56.30;;;15.60;;
3573;SDS011;1801;51.050;6.246;2023-12-14T04:01:42;42.17;;;17.80;;
3573;SDS011;1801;51.050;6.246;2023-12-14T04:04:07;46.37;;;15.43;;
3573;SDS011;1801;51.050;6.246;2023-12-14T04:06:33;54.70;;;16.90;;
3573;SDS011;1801;51.050;6.246;2023-12-14T04:08:58;50.20;;;15.30;;
3573;SDS011;1801;51.050;6.246;2023-12-14T04:11:23;50.73;;;15.37;;
3573;SDS011;1801;51.050;6.246;2023-12-14T04:13:49;52.27;;;16.40;;
3573;SDS011;1801;51.050;6.246;2023-12-14T04:16:15;54.45;;;16.40;;
3573;SDS011;1801;51.050;6.246;2023-12-14T04:18:40;52.67;;;18.07;;
3573;SDS011;1801;51.050;6.246;2023-12-14T04:21:06;49.27;;;17.00;;
3573;SDS011;1801;51.050;6.246;2023-12-14T04:23:31;57.43;;;17.73;;
3573;SDS011;1801;51.050;6.246;2023-12-14T04:25:56;82.40;;;18.70;;
3573;SDS011;1801;51.050;6.246;2023-12-14T04:28:21;57.10;;;16.43;;
3573;SDS011;1801;51.050;6.246;2023-12-14T04:30:46;63.77;;;17.50;;
3573;SDS011;1801;51.050;6.246;2023-12-14T04:33:12;57.37;;;17.83;;
3573;SDS011;1801;51.050;6.246;2023-12-14T04:35:37;63.70;;;18.37;;
3573;SDS011;1801;51.050;6.246;2023-12-14T04:38:02;52.50;;;15.33;;
3573;SDS011;1801;51.050;6.246;2023-12-14T04:40:27;54.17;;;17.10;;
3573;SDS011;1801;51.050;6.246;2023-12-14T04:42:52;63.90;;;19.40;;
3573;SDS011;1801;51.050;6.246;2023-12-14T04:45:18;56.60;;;19.60;;
3573;SDS011;1801;51.050;6.246;2023-12-14T04:47:44;69.07;;;17.47;;
3573;SDS011;1801;51.050;6.246;2023-12-14T04:50:09;68.70;;;18.80;;
3573;SDS011;1801;51.050;6.246;2023-12-14T04:52:34;61.23;;;17.47;;
3573;SDS011;1801;51.050;6.246;2023-12-14T04:54:59;59.30;;;15.73;;
3573;SDS011;1801;51.050;6.246;2023-12-14T04:57:25;75.30;;;19.47;;
3573;SDS011;1801;51.050;6.246;2023-12-14T04:59:50;69.77;;;19.90;;
3573;SDS011;1801;51.050;6.246;2023-12-14T05:02:15;65.27;;;17.60;;
3573;SDS011;1801;51.050;6.246;2023-12-14T05:04:40;60.87;;;18.57;;
3573;SDS011;1801;51.050;6.246;2023-12-14T05:07:05;56.93;;;17.50;;
3573;SDS011;1801;51.050;6.246;2023-12-14T05:09:31;55.17;;;17.07;;
3573;SDS011;1801;51.050;6.246;2023-12-14T05:11:56;58.17;;;16.33;;
3573;SDS011;1801;51.050;6.246;2023-12-14T05:14:21;55.63;;;18.30;;
3573;SDS011;1801;51.050;6.246;2023-12-14T05:16:46;58.90;;;16.53;;
3573;SDS011;1801;51.050;6.246;2023-12-14T05:19:11;50.13;;;15.10;;
3573;SDS011;1801;51.050;6.246;2023-12-14T05:21:37;57.85;;;17.52;;
3573;SDS011;1801;51.050;6.246;2023-12-14T05:24:03;61.57;;;17.10;;
3573;SDS011;1801;51.050;6.246;2023-12-14T05:26:28;49.80;;;15.47;;
3573;SDS011;1801;51.050;6.246;2023-12-14T05:28:53;51.23;;;15.57;;
3573;SDS011;1801;51.050;6.246;2023-12-14T05:31:18;61.73;;;18.00;;
3573;SDS011;1801;51.050;6.246;2023-12-14T05:33:44;51.70;;;16.30;;
3573;SDS011;1801;51.050;6.246;2023-12-14T05:36:09;50.07;;;14.87;;
3573;SDS011;1801;51.050;6.246;2023-12-14T05:38:38;47.53;;;15.60;;
3573;SDS011;1801;51.050;6.246;2023-12-14T05:41:03;42.92;;;15.25;;
3573;SDS011;1801;51.050;6.246;2023-12-14T05:43:29;56.13;;;15.63;;
3573;SDS011;1801;51.050;6.246;2023-12-14T05:45:54;56.27;;;16.27;;
3573;SDS011;1801;51.050;6.246;2023-12-14T05:48:19;54.70;;;16.50;;
3573;SDS011;1801;51.050;6.246;2023-12-14T05:50:44;58.40;;;16.40;;
3573;SDS011;1801;51.050;6.246;2023-12-14T05:53:09;65.03;;;18.47;;
3573;SDS011;1801;51.050;6.246;2023-12-14T05:55:35;64.90;;;19.63;;
3573;SDS011;1801;51.050;6.246;2023-12-14T05:58:00;56.37;;;18.20;;
3573;SDS011;1801;51.050;6.246;2023-12-14T06:00:25;53.03;;;17.03;;
3573;SDS011;1801;51.050;6.246;2023-12-14T06:02:50;70.83;;;18.53;;
3573;SDS011;1801;51.050;6.246;2023-12-14T06:05:16;67.20;;;18.97;;
3573;SDS011;1801;51.050;6.246;2023-12-14T06:07:41;64.27;;;18.50;;
3573;SDS011;1801;51.050;6.246;2023-12-14T06:10:06;57.70;;;17.73;;
3573;SDS011;1801;51.050;6.246;2023-12-14T06:12:31;53.27;;;18.63;;
3573;SDS011;1801;51.050;6.246;2023-12-14T06:14:57;49.37;;;16.07;;
3573;SDS011;1801;51.050;6.246;2023-12-14T06:17:22;41.77;;;14.27;;
3573;SDS011;1801;51.050;6.246;2023-12-14T06:19:47;52.43;;;14.33;;
3573;SDS011;1801;51.050;6.246;2023-12-14T06:22:12;53.40;;;15.40;;
3573;SDS011;1801;51.050;6.246;2023-12-14T06:24:37;57.47;;;16.53;;
3573;SDS011;1801;51.050;6.246;2023-12-14T06:27:03;54.77;;;16.03;;
3573;SDS011;1801;51.050;6.246;2023-12-14T06:29:28;48.93;;;14.40;;
3573;SDS011;1801;51.050;6.246;2023-12-14T06:31:53;44.53;;;14.60;;
3573;SDS011;1801;51.050;6.246;2023-12-14T06:34:19;50.83;;;17.13;;
3573;SDS011;1801;51.050;6.246;2023-12-14T06:36:44;49.63;;;17.77;;
3573;SDS011;1801;51.050;6.246;2023-12-14T06:39:10;54.27;;;17.40;;
3573;SDS011;1801;51.050;6.246;2023-12-14T06:41:35;49.10;;;16.93;;
3573;SDS011;1801;51.050;6.246;2023-12-14T06:44:01;54.00;;;17.57;;
3573;SDS011;1801;51.050;6.246;2023-12-14T06:46:26;52.23;;;17.43;;
3573;SDS011;1801;51.050;6.246;2023-12-14T06:48:51;53.63;;;16.10;;
3573;SDS011;1801;51.050;6.246;2023-12-14T06:51:16;55.50;;;15.83;;
3573;SDS011;1801;51.050;6.246;2023-12-14T06:53:42;44.23;;;16.50;;
3573;SDS011;1801;51.050;6.246;2023-12-14T06:56:08;52.47;;;17.50;;
3573;SDS011;1801;51.050;6.246;2023-12-14T06:58:36;41.35;;;15.90;;
3573;SDS011;1801;51.050;6.246;2023-12-14T07:01:01;57.47;;;17.40;;
3573;SDS011;1801;51.050;6.246;2023-12-14T07:03:27;49.87;;;17.47;;
3573;SDS011;1801;51.050;6.246;2023-12-14T07:05:52;52.53;;;17.27;;
3573;SDS011;1801;51.050;6.246;2023-12-14T07:08:17;58.67;;;17.47;;
3573;SDS011;1801;51.050;6.246;2023-12-14T07:10:42;51.87;;;17.47;;
3573;SDS011;1801;51.050;6.246;2023-12-14T07:13:07;50.53;;;16.80;;
3573;SDS011;1801;51.050;6.246;2023-12-14T07:15:33;49.77;;;16.17;;
3573;SDS011;1801;51.050;6.246;2023-12-14T07:17:58;48.23;;;15.40;;
3573;SDS011;1801;51.050;6.246;2023-12-14T07:20:23;45.33;;;17.40;;
3573;SDS011;1801;51.050;6.246;2023-12-14T07:22:50;39.95;;;15.70;;
3573;SDS011;1801;51.050;6.246;2023-12-14T07:25:15;57.63;;;17.80;;
3573;SDS011;1801;51.050;6.246;2023-12-14T07:27:40;40.20;;;14.53;;
3573;SDS011;1801;51.050;6.246;2023-12-14T07:30:05;41.50;;;14.03;;
3573;SDS011;1801;51.050;6.246;2023-12-14T07:32:31;47.10;;;16.40;;
3573;SDS011;1801;51.050;6.246;2023-12-14T07:34:56;48.83;;;15.03;;
3573;SDS011;1801;51.050;6.246;2023-12-14T07:37:21;41.97;;;14.67;;
3573;SDS011;1801;51.050;6.246;2023-12-14T07:39:46;46.23;;;15.53;;
3573;SDS011;1801;51.050;6.246;2023-12-14T07:42:11;46.17;;;16.80;;
3573;SDS011;1801;51.050;6.246;2023-12-14T07:44:37;45.83;;;16.63;;
3573;SDS011;1801;51.050;6.246;2023-12-14T07:47:05;33.47;;;14.10;;
3573;SDS011;1801;51.050;6.246;2023-12-14T07:49:30;45.47;;;13.90;;
3573;SDS011;1801;51.050;6.246;2023-12-14T07:51:55;49.90;;;16.73;;
3573;SDS011;1801;51.050;6.246;2023-12-14T07:54:21;45.23;;;16.60;;
3573;SDS011;1801;51.050;6.246;2023-12-14T07:56:47;52.50;;;16.33;;
3573;SDS011;1801;51.050;6.246;2023-12-14T07:59:12;41.33;;;16.33;;
3573;SDS011;1801;51.050;6.246;2023-12-14T08:01:37;50.23;;;16.67;;
3573;SDS011;1801;51.050;6.246;2023-12-14T08:04:03;56.87;;;17.60;;
3573;SDS011;1801;51.050;6.246;2023-12-14T08:06:29;48.43;;;18.20;;
3573;SDS011;1801;51.050;6.246;2023-12-14T08:08:54;45.50;;;16.60;;
3573;SDS011;1801;51.050;6.246;2023-12-14T08:11:20;45.90;;;15.50;;
3573;SDS011;1801;51.050;6.246;2023-12-14T08:13:45;57.07;;;20.00;;
3573;SDS011;1801;51.050;6.246;2023-12-14T08:16:10;53.13;;;18.23;;
3573;SDS011;1801;51.050;6.246;2023-12-14T08:18:38;68.82;;;17.02;;
3573;SDS011;1801;51.050;6.246;2023-12-14T08:21:04;40.43;;;15.17;;
3573;SDS011;1801;51.050;6.246;2023-12-14T08:23:29;52.17;;;16.30;;
3573;SDS011;1801;51.050;6.246;2023-12-14T08:25:55;41.50;;;14.30;;
3573;SDS011;1801;51.050;6.246;2023-12-14T08:28:24;43.15;;;16.05;;
3573;SDS011;1801;51.050;6.246;2023-12-14T08:30:49;43.57;;;15.70;;
3573;SDS011;1801;51.050;6.246;2023-12-14T08:33:14;47.97;;;16.87;;
3573;SDS011;1801;51.050;6.246;2023-12-14T08:35:40;43.07;;;15.63;;
3573;SDS011;1801;51.050;6.246;2023-12-14T08:38:05;36.77;;;13.70;;
3573;SDS011;1801;51.050;6.246;2023-12-14T08:40:31;40.97;;;15.47;;
3573;SDS011;1801;51.050;6.246;2023-12-14T08:42:56;40.00;;;14.80;;
3573;SDS011;1801;51.050;6.246;2023-12-14T08:45:22;44.97;;;15.10;;
3573;SDS011;1801;51.050;6.246;2023-12-14T08:47:47;34.07;;;14.20;;
3573;SDS011;1801;51.050;6.246;2023-12-14T08:50:12;49.97;;;15.07;;
3573;SDS011;1801;51.050;6.246;2023-12-14T08:52:37;44.27;;;15.50;;
3573;SDS011;1801;51.050;6.246;2023-12-14T08:55:03;42.97;;;15.37;;
3573;SDS011;1801;51.050;6.246;2023-12-14T08:57:28;36.70;;;14.37;;
3573;SDS011;1801;51.050;6.246;2023-12-14T08:59:53;35.80;;;13.90;;
3573;SDS011;1801;51.050;6.246;2023-12-14T09:02:18;37.43;;;15.37;;
3573;SDS011;1801;51.050;6.246;2023-12-14T09:04:43;47.13;;;17.07;;
3573;SDS011;1801;51.050;6.246;2023-12-14T09:07:09;41.60;;;14.00;;
3573;SDS011;1801;51.050;6.246;2023-12-14T09:09:34;34.60;;;12.53;;
3573;SDS011;1801;51.050;6.246;2023-12-14T09:11:59;35.53;;;14.00;;
3573;SDS011;1801;51.050;6.246;2023-12-14T09:14:24;36.37;;;14.60;;
3573;SDS011;1801;51.050;6.246;2023-12-14T09:16:50;39.87;;;14.83;;
3573;SDS011;1801;51.050;6.246;2023-12-14T09:19:15;43.17;;;15.27;;
3573;SDS011;1801;51.050;6.246;2023-12-14T09:21:40;40.73;;;13.57;;
3573;SDS011;1801;51.050;6.246;2023-12-14T09:24:05;40.83;;;16.43;;
3573;SDS011;1801;51.050;6.246;2023-12-14T09:26:31;37.20;;;15.67;;
3573;SDS011;1801;51.050;6.246;2023-12-14T09:28:56;47.30;;;15.37;;
3573;SDS011;1801;51.050;6.246;2023-12-14T09:31:21;38.57;;;14.33;;
3573;SDS011;1801;51.050;6.246;2023-12-14T09:33:47;38.07;;;14.60;;
3573;SDS011;1801;51.050;6.246;2023-12-14T09:36:12;39.63;;;14.87;;
3573;SDS011;1801;51.050;6.246;2023-12-14T09:38:37;39.00;;;14.77;;
3573;SDS011;1801;51.050;6.246;2023-12-14T09:41:03;40.17;;;14.70;;
3573;SDS011;1801;51.050;6.246;2023-12-14T09:43:28;44.73;;;14.90;;
3573;SDS011;1801;51.050;6.246;2023-12-14T09:45:53;38.90;;;15.27;;
3573;SDS011;1801;51.050;6.246;2023-12-14T09:48:19;41.03;;;14.82;;
3573;SDS011;1801;51.050;6.246;2023-12-14T09:50:45;35.93;;;14.40;;
3573;SDS011;1801;51.050;6.246;2023-12-14T09:53:10;41.30;;;15.07;;
3573;SDS011;1801;51.050;6.246;2023-12-14T09:55:36;41.27;;;15.60;;
3573;SDS011;1801;51.050;6.246;2023-12-14T09:58:01;34.33;;;14.23;;
3573;SDS011;1801;51.050;6.246;2023-12-14T10:00:32;41.45;;;14.30;;
3573;SDS011;1801;51.050;6.246;2023-12-14T10:03:03;42.83;;;14.88;;
3573;SDS011;1801;51.050;6.246;2023-12-14T10:05:42;41.05;;;16.27;;
3573;SDS011;1801;51.050;6.246;2023-12-14T10:08:07;32.17;;;12.20;;
3573;SDS011;1801;51.050;6.246;2023-12-14T10:10:32;38.20;;;14.70;;
3573;SDS011;1801;51.050;6.246;2023-12-14T10:12:57;37.13;;;14.50;;
3573;SDS011;1801;51.050;6.246;2023-12-14T10:15:23;42.30;;;15.07;;
3573;SDS011;1801;51.050;6.246;2023-12-14T10:17:51;44.10;;;16.48;;
3573;SDS011;1801;51.050;6.246;2023-12-14T10:20:19;36.53;;;14.98;;
3573;SDS011;1801;51.050;6.246;2023-12-14T10:22:46;42.05;;;16.00;;
3573;SDS011;1801;51.050;6.246;2023-12-14T10:25:12;46.67;;;15.33;;
3573;SDS011;1801;51.050;6.246;2023-12-14T10:27:37;41.87;;;15.47;;
3573;SDS011;1801;51.050;6.246;2023-12-14T10:30:06;41.80;;;14.83;;
3573;SDS011;1801;51.050;6.246;2023-12-14T10:32:33;36.28;;;14.25;;
3573;SDS011;1801;51.050;6.246;2023-12-14T10:34:58;39.67;;;14.20;;
3573;SDS011;1801;51.050;6.246;2023-12-14T10:37:24;43.90;;;17.30;;
3573;SDS011;1801;51.050;6.246;2023-12-14T10:39:50;34.13;;;14.90;;
3573;SDS011;1801;51.050;6.246;2023-12-14T10:42:15;36.47;;;14.60;;
3573;SDS011;1801;51.050;6.246;2023-12-14T10:44:43;46.60;;;13.75;;
3573;SDS011;1801;51.050;6.246;2023-12-14T10:47:08;47.43;;;13.83;;
3573;SDS011;1801;51.050;6.246;2023-12-14T10:49:34;43.03;;;16.77;;
3573;SDS011;1801;51.050;6.246;2023-12-14T10:52:00;46.47;;;15.48;;
3573;SDS011;1801;51.050;6.246;2023-12-14T10:54:27;43.85;;;16.75;;
3573;SDS011;1801;51.050;6.246;2023-12-14T10:56:56;42.40;;;15.83;;
3573;SDS011;1801;51.050;6.246;2023-12-14T10:59:21;40.22;;;15.05;;
3573;SDS011;1801;51.050;6.246;2023-12-14T11:01:51;38.77;;;15.97;;
3573;SDS011;1801;51.050;6.246;2023-12-14T11:04:16;34.70;;;15.05;;
3573;SDS011;1801;51.050;6.246;2023-12-14T11:06:42;39.93;;;14.77;;
3573;SDS011;1801;51.050;6.246;2023-12-14T11:09:12;38.83;;;14.73;;
3573;SDS011;1801;51.050;6.246;2023-12-14T11:11:43;37.58;;;13.82;;
3573;SDS011;1801;51.050;6.246;2023-12-14T11:14:12;40.72;;;14.38;;
3573;SDS011;1801;51.050;6.246;2023-12-14T11:16:38;38.05;;;13.85;;
3573;SDS011;1801;51.050;6.246;2023-12-14T11:21:47;36.80;;;14.43;;
3573;SDS011;1801;51.050;6.246;2023-12-14T11:24:12;40.90;;;13.90;;
3573;SDS011;1801;51.050;6.246;2023-12-14T11:26:37;33.93;;;12.83;;
3573;SDS011;1801;51.050;6.246;2023-12-14T11:29:02;33.73;;;13.53;;
3573;SDS011;1801;51.050;6.246;2023-12-14T11:31:29;35.22;;;14.23;;
3573;SDS011;1801;51.050;6.246;2023-12-14T11:33:54;28.73;;;12.37;;
3573;SDS011;1801;51.050;6.246;2023-12-14T11:36:21;35.17;;;12.02;;
3573;SDS011;1801;51.050;6.246;2023-12-14T11:38:47;34.20;;;12.63;;
3573;SDS011;1801;51.050;6.246;2023-12-14T11:41:12;39.92;;;13.93;;
3573;SDS011;1801;51.050;6.246;2023-12-14T11:43:43;33.57;;;12.10;;
3573;SDS011;1801;51.050;6.246;2023-12-14T11:46:09;33.95;;;12.57;;
3573;SDS011;1801;51.050;6.246;2023-12-14T11:48:34;36.50;;;14.37;;
3573;SDS011;1801;51.050;6.246;2023-12-14T11:50:59;25.27;;;10.53;;
3573;SDS011;1801;51.050;6.246;2023-12-14T11:53:25;27.70;;;11.32;;
3573;SDS011;1801;51.050;6.246;2023-12-14T11:55:59;27.20;;;11.70;;
3573;SDS011;1801;51.050;6.246;2023-12-14T11:58:27;32.17;;;11.80;;
3573;SDS011;1801;51.050;6.246;2023-12-14T12:01:14;33.83;;;12.32;;
3573;SDS011;1801;51.050;6.246;2023-12-14T12:03:40;31.67;;;12.48;;
3573;SDS011;1801;51.050;6.246;2023-12-14T12:06:05;32.67;;;14.40;;
3573;SDS011;1801;51.050;6.246;2023-12-14T12:08:30;36.60;;;14.00;;
3573;SDS011;1801;51.050;6.246;2023-12-14T12:10:56;33.40;;;12.80;;
3573;SDS011;1801;51.050;6.246;2023-12-14T12:13:22;37.07;;;13.10;;
3573;SDS011;1801;51.050;6.246;2023-12-14T12:15:47;28.63;;;11.70;;
3573;SDS011;1801;51.050;6.246;2023-12-14T12:18:13;29.37;;;12.07;;
3573;SDS011;1801;51.050;6.246;2023-12-14T12:20:38;34.83;;;12.67;;
3573;SDS011;1801;51.050;6.246;2023-12-14T12:23:03;28.83;;;12.10;;
3573;SDS011;1801;51.050;6.246;2023-12-14T12:25:29;31.53;;;11.70;;
3573;SDS011;1801;51.050;6.246;2023-12-14T12:27:55;34.08;;;13.18;;
3573;SDS011;1801;51.050;6.246;2023-12-14T12:30:21;31.87;;;13.20;;
3573;SDS011;1801;51.050;6.246;2023-12-14T12:32:47;28.08;;;10.13;;
3573;SDS011;1801;51.050;6.246;2023-12-14T12:35:12;27.73;;;10.93;;
3573;SDS011;1801;51.050;6.246;2023-12-14T12:37:38;35.60;;;10.93;;
3573;SDS011;1801;51.050;6.246;2023-12-14T12:40:04;38.90;;;11.37;;
3573;SDS011;1801;51.050;6.246;2023-12-14T12:42:29;29.27;;;10.07;;
3573;SDS011;1801;51.050;6.246;2023-12-14T12:44:55;30.47;;;10.80;;
3573;SDS011;1801;51.050;6.246;2023-12-14T12:47:20;26.37;;;10.87;;
3573;SDS011;1801;51.050;6.246;2023-12-14T12:49:45;26.77;;;10.03;;
3573;SDS011;1801;51.050;6.246;2023-12-14T12:52:10;30.27;;;12.77;;
3573;SDS011;1801;51.050;6.246;2023-12-14T12:54:35;31.60;;;13.83;;
3573;SDS011;1801;51.050;6.246;2023-12-14T12:57:01;32.40;;;10.43;;
3573;SDS011;1801;51.050;6.246;2023-12-14T12:59:26;29.53;;;10.90;;
3573;SDS011;1801;51.050;6.246;2023-12-14T13:01:51;30.00;;;10.97;;
3573;SDS011;1801;51.050;6.246;2023-12-14T13:04:20;33.80;;;12.70;;
3573;SDS011;1801;51.050;6.246;2023-12-14T13:06:48;30.40;;;11.60;;
3573;SDS011;1801;51.050;6.246;2023-12-14T13:09:14;32.00;;;12.52;;
3573;SDS011;1801;51.050;6.246;2023-12-14T13:11:39;32.40;;;11.40;;
3573;SDS011;1801;51.050;6.246;2023-12-14T13:14:04;23.97;;;9.43;;
3573;SDS011;1801;51.050;6.246;2023-12-14T13:16:32;27.42;;;10.27;;
3573;SDS011;1801;51.050;6.246;2023-12-14T13:18:58;31.03;;;10.83;;
3573;SDS011;1801;51.050;6.246;2023-12-14T13:21:23;24.53;;;10.70;;
3573;SDS011;1801;51.050;6.246;2023-12-14T13:23:48;29.50;;;11.30;;
3573;SDS011;1801;51.050;6.246;2023-12-14T13:26:15;32.03;;;12.05;;
3573;SDS011;1801;51.050;6.246;2023-12-14T13:28:41;24.13;;;11.10;;
3573;SDS011;1801;51.050;6.246;2023-12-14T13:31:06;28.67;;;11.23;;
3573;SDS011;1801;51.050;6.246;2023-12-14T13:33:31;28.37;;;9.73;;
3573;SDS011;1801;51.050;6.246;2023-12-14T13:35:56;29.83;;;12.17;;
3573;SDS011;1801;51.050;6.246;2023-12-14T13:38:22;25.17;;;11.10;;
3573;SDS011;1801;51.050;6.246;2023-12-14T13:40:47;29.00;;;11.43;;
3573;SDS011;1801;51.050;6.246;2023-12-14T13:43:13;24.70;;;11.40;;
3573;SDS011;1801;51.050;6.246;2023-12-14T13:45:38;24.73;;;10.30;;
3573;SDS011;1801;51.050;6.246;2023-12-14T13:48:03;28.80;;;12.23;;
3573;SDS011;1801;51.050;6.246;2023-12-14T13:50:29;36.27;;;12.00;;
3573;SDS011;1801;51.050;6.246;2023-12-14T13:52:54;35.47;;;12.80;;
3573;SDS011;1801;51.050;6.246;2023-12-14T13:55:20;26.40;;;10.00;;
3573;SDS011;1801;51.050;6.246;2023-12-14T13:57:45;32.80;;;13.23;;
3573;SDS011;1801;51.050;6.246;2023-12-14T14:00:12;25.58;;;10.60;;
3573;SDS011;1801;51.050;6.246;2023-12-14T14:02:38;28.70;;;11.73;;
3573;SDS011;1801;51.050;6.246;2023-12-14T14:05:03;32.60;;;12.00;;
3573;SDS011;1801;51.050;6.246;2023-12-14T14:07:28;30.73;;;10.87;;
3573;SDS011;1801;51.050;6.246;2023-12-14T14:09:53;30.37;;;11.23;;
3573;SDS011;1801;51.050;6.246;2023-12-14T14:12:19;27.93;;;11.43;;
3573;SDS011;1801;51.050;6.246;2023-12-14T14:14:44;28.13;;;12.07;;
3573;SDS011;1801;51.050;6.246;2023-12-14T14:17:09;27.23;;;10.60;;
3573;SDS011;1801;51.050;6.246;2023-12-14T14:19:35;31.37;;;12.23;;
3573;SDS011;1801;51.050;6.246;2023-12-14T14:22:00;25.00;;;10.17;;
3573;SDS011;1801;51.050;6.246;2023-12-14T14:24:25;20.47;;;9.70;;
3573;SDS011;1801;51.050;6.246;2023-12-14T14:26:51;22.93;;;11.00;;
3573;SDS011;1801;51.050;6.246;2023-12-14T14:29:17;23.63;;;9.68;;
3573;SDS011;1801;51.050;6.246;2023-12-14T14:31:43;26.30;;;10.25;;
3573;SDS011;1801;51.050;6.246;2023-12-14T14:34:08;22.37;;;9.10;;
3573;SDS011;1801;51.050;6.246;2023-12-14T14:36:33;22.07;;;9.50;;
3573;SDS011;1801;51.050;6.246;2023-12-14T14:38:59;21.83;;;9.43;;
3573;SDS011;1801;51.050;6.246;2023-12-14T14:41:24;24.00;;;8.90;;
3573;SDS011;1801;51.050;6.246;2023-12-14T14:43:49;18.37;;;7.57;;